createdAt,value
2023-06-04T00:04:36.179Z,58.07
2023-06-04T00:09:39.240Z,58.55
2023-06-04T00:14:40.972Z,58.54
2023-06-04T00:19:42.664Z,59.05
2023-06-04T00:24:45.752Z,59.23
2023-06-04T00:29:47.517Z,59.20
2023-06-04T00:34:51.931Z,59.64
2023-06-04T00:39:55.196Z,59.57
2023-06-04T00:44:56.966Z,59.44
2023-06-04T00:49:58.739Z,59.34
2023-06-04T00:55:01.929Z,59.55
2023-06-04T01:00:04.302Z,59.43
2023-06-04T01:05:15.388Z,59.77
2023-06-04T01:10:18.532Z,60.11
2023-06-04T01:15:20.406Z,60.20
2023-06-04T01:20:29.269Z,59.93
2023-06-04T01:25:37.842Z,60.06
2023-06-04T01:30:41.838Z,60.13
2023-06-04T01:35:43.884Z,60.60
2023-06-04T01:40:48.290Z,60.79
2023-06-04T01:45:49.978Z,60.78
2023-06-04T01:50:51.625Z,60.58
2023-06-04T01:55:54.679Z,60.84
2023-06-04T02:00:56.604Z,60.63
2023-06-04T02:05:58.313Z,60.69
2023-06-04T02:11:01.394Z,60.88
2023-06-04T02:16:03.148Z,60.67
2023-06-04T02:21:05.674Z,60.79
2023-06-04T02:26:08.980Z,60.61
2023-06-04T02:31:10.650Z,61.30
2023-06-04T02:36:12.312Z,61.05
2023-06-04T02:41:15.441Z,61.25
2023-06-04T02:46:17.234Z,61.45
2023-06-04T02:51:19.027Z,61.11
2023-06-04T02:56:22.209Z,61.31
2023-06-04T03:01:24.254Z,61.12
2023-06-04T03:06:25.975Z,61.56
2023-06-04T03:11:29.758Z,61.58
2023-06-04T03:16:31.618Z,61.22
2023-06-04T03:21:33.377Z,61.46
2023-06-04T03:26:36.478Z,61.16
2023-06-04T03:31:38.283Z,61.47
2023-06-04T03:36:40.336Z,61.77
2023-06-04T03:41:44.080Z,61.39
2023-06-04T03:46:46.464Z,61.99
2023-06-04T03:51:48.283Z,62.01
2023-06-04T03:56:51.303Z,62.17
2023-06-04T04:01:53.723Z,62.13
2023-06-04T04:06:55.830Z,62.56
2023-06-04T04:11:58.882Z,62.10
2023-06-04T04:17:00.598Z,61.21
2023-06-04T04:22:02.549Z,61.90
2023-06-04T04:27:06.160Z,61.91
2023-06-04T04:32:07.963Z,61.78
2023-06-04T04:37:09.795Z,61.99
2023-06-04T04:42:12.832Z,61.53
2023-06-04T04:47:14.687Z,62.08
2023-06-04T04:52:16.365Z,63.29
2023-06-04T04:57:19.497Z,62.28
2023-06-04T05:02:21.207Z,61.62
2023-06-04T05:07:22.930Z,60.38
2023-06-04T05:12:26.358Z,58.79
2023-06-04T05:17:28.162Z,58.01
2023-06-04T05:22:29.913Z,56.70
2023-06-04T05:27:33.067Z,56.26
2023-06-04T05:32:34.798Z,55.93
2023-06-04T05:37:38.365Z,55.21
2023-06-04T05:42:42.516Z,54.63
2023-06-04T05:47:44.065Z,55.11
2023-06-04T05:52:45.724Z,54.68
2023-06-04T05:57:49.182Z,54.27
2023-06-04T06:02:51.345Z,54.04
2023-06-04T06:07:53.125Z,53.50
2023-06-04T06:12:56.225Z,52.69
2023-06-04T06:17:57.980Z,51.70
2023-06-04T06:23:07.323Z,50.98
2023-06-04T06:28:10.331Z,51.23
2023-06-04T06:33:12.034Z,49.57
2023-06-04T06:38:14.258Z,51.20
2023-06-04T06:43:18.113Z,49.34
2023-06-04T06:48:19.770Z,50.80
2023-06-04T06:53:21.477Z,47.98
2023-06-04T06:58:24.511Z,48.42
2023-06-04T07:03:26.346Z,49.27
2023-06-04T07:08:28.111Z,47.55
2023-06-04T07:13:31.206Z,46.80
2023-06-04T07:18:32.900Z,48.32
2023-06-04T07:23:34.716Z,47.56
2023-06-04T07:28:37.985Z,45.80
2023-06-04T07:33:39.690Z,45.48
2023-06-04T07:38:41.499Z,42.03
2023-06-04T07:43:45.255Z,43.69
2023-06-04T07:48:47.041Z,44.61
2023-06-04T07:53:48.726Z,45.04
2023-06-04T07:58:51.772Z,42.80
2023-06-04T08:03:53.539Z,44.91
2023-06-04T08:08:55.388Z,44.03
2023-06-04T08:13:58.562Z,45.14
2023-06-04T08:19:02.855Z,44.86
2023-06-04T08:24:04.652Z,44.51
2023-06-04T08:29:07.800Z,46.04
2023-06-04T08:34:09.556Z,46.83
2023-06-04T08:39:11.248Z,47.42
2023-06-04T08:44:17.263Z,48.51
2023-06-04T08:49:20.098Z,46.29
2023-06-04T08:54:21.911Z,47.84
2023-06-04T08:59:25.048Z,47.00
2023-06-04T09:04:26.969Z,47.85
2023-06-04T09:09:29.172Z,47.26
2023-06-04T09:14:32.325Z,46.68
2023-06-04T09:19:34.101Z,48.28
2023-06-04T09:24:41.103Z,45.57
2023-06-04T09:29:51.867Z,47.27
2023-06-04T09:34:53.789Z,44.42
2023-06-04T09:39:55.897Z,44.54
2023-06-04T09:44:58.973Z,44.59
2023-06-04T09:50:00.657Z,44.30
2023-06-04T09:55:02.344Z,44.76
2023-06-04T10:00:06.736Z,46.29
2023-06-04T10:05:11.915Z,45.41
2023-06-04T10:10:17.774Z,46.99
2023-06-04T10:15:21.563Z,46.09
2023-06-04T10:20:23.994Z,45.54
2023-06-04T10:25:27.243Z,44.62
2023-06-04T10:30:30.663Z,44.95
2023-06-04T10:35:33.292Z,44.98
2023-06-04T10:40:35.925Z,43.75
2023-06-04T10:45:39.410Z,45.56
2023-06-04T10:50:51.221Z,44.44
2023-06-04T10:55:52.928Z,43.70
2023-06-04T11:00:55.983Z,43.77
2023-06-04T11:05:57.756Z,44.24
2023-06-04T11:10:59.487Z,44.67
2023-06-04T11:16:02.621Z,45.40
2023-06-04T11:21:04.534Z,44.72
2023-06-04T11:26:06.853Z,44.48
2023-06-04T11:31:10.260Z,43.06
2023-06-04T11:36:22.915Z,44.00
2023-06-04T11:41:25.366Z,44.83
2023-06-04T11:46:28.592Z,43.15
2023-06-04T11:51:31.457Z,44.66
2023-06-04T11:56:33.379Z,44.23
2023-06-04T12:01:36.517Z,45.97
2023-06-04T12:06:38.213Z,47.27
2023-06-04T12:11:39.925Z,47.03
2023-06-04T12:16:43.025Z,46.31
2023-06-04T12:21:44.735Z,46.73
2023-06-04T12:26:49.147Z,46.50
2023-06-04T12:32:03.312Z,45.22
2023-06-04T12:37:05.384Z,46.36
2023-06-04T12:42:08.198Z,46.22
2023-06-04T12:47:11.435Z,46.95
2023-06-04T12:52:13.557Z,46.62
2023-06-04T12:57:15.247Z,46.24
2023-06-04T13:02:18.383Z,45.95
2023-06-04T13:07:20.254Z,44.23
2023-06-04T13:12:21.977Z,44.36
2023-06-04T13:17:25.150Z,45.58
2023-06-04T13:22:26.953Z,46.01
2023-06-04T13:27:28.751Z,47.11
2023-06-04T13:32:31.837Z,46.61
2023-06-04T13:37:33.636Z,45.71
2023-06-04T13:42:35.401Z,44.67
2023-06-04T13:47:38.540Z,43.90
2023-06-04T13:52:40.361Z,45.34
2023-06-04T13:57:42.144Z,43.80
2023-06-04T14:02:45.368Z,43.83
2023-06-04T14:07:47.135Z,44.55
2023-06-04T14:12:48.800Z,44.46
2023-06-04T14:17:51.893Z,44.06
2023-06-04T14:22:53.562Z,44.04
2023-06-04T14:27:55.285Z,43.50
2023-06-04T14:33:01.409Z,44.19
2023-06-04T14:38:03.125Z,43.65
2023-06-04T14:43:04.802Z,44.95
2023-06-04T14:48:15.532Z,43.90
2023-06-04T14:53:18.298Z,43.38
2023-06-04T14:58:20.115Z,44.85
2023-06-04T15:03:23.355Z,43.26
2023-06-04T15:08:25.063Z,44.91
2023-06-04T15:13:26.726Z,43.74
2023-06-04T15:18:29.904Z,45.83
2023-06-04T15:23:31.794Z,46.25
2023-06-04T15:28:33.608Z,44.87
2023-06-04T15:33:36.721Z,46.64
2023-06-04T15:38:38.506Z,43.81
2023-06-04T15:43:40.206Z,44.76
2023-06-04T15:48:43.326Z,44.79
2023-06-04T15:53:45.247Z,43.53
2023-06-04T15:58:46.952Z,44.35
2023-06-04T16:03:50.834Z,44.68
2023-06-04T16:08:52.638Z,44.36
2023-06-04T16:13:54.342Z,43.90
2023-06-04T16:18:57.383Z,44.29
2023-06-04T16:23:59.142Z,43.37
2023-06-04T16:29:00.899Z,44.06
2023-06-04T16:34:04.014Z,42.70
2023-06-04T16:39:05.902Z,45.16
2023-06-04T16:44:07.641Z,42.21
2023-06-04T16:49:10.862Z,42.14
2023-06-04T16:54:12.515Z,43.27
2023-06-04T16:59:14.243Z,42.39
2023-06-04T17:04:17.328Z,43.40
2023-06-04T17:09:19.043Z,44.44
2023-06-04T17:14:20.741Z,43.80
2023-06-04T17:19:23.889Z,43.90
2023-06-04T17:24:25.664Z,43.19
2023-06-04T17:29:27.435Z,44.22
2023-06-04T17:34:30.589Z,43.00
2023-06-04T17:39:32.564Z,46.30
2023-06-04T17:44:34.249Z,45.35
2023-06-04T17:49:37.400Z,47.31
2023-06-04T17:54:39.098Z,45.16
2023-06-04T17:59:40.802Z,47.04
2023-06-04T18:04:44.011Z,45.54
2023-06-04T18:09:45.670Z,46.54
2023-06-04T18:14:47.356Z,46.05
2023-06-04T18:19:50.423Z,49.46
2023-06-04T18:24:54.310Z,48.29
2023-06-04T18:29:56.293Z,47.91
2023-06-04T18:34:59.377Z,50.05
2023-06-04T18:40:01.060Z,51.48
2023-06-04T18:45:02.737Z,51.74
2023-06-04T18:50:07.062Z,52.81
2023-06-04T18:55:09.891Z,51.44
2023-06-04T19:00:12.891Z,50.24
2023-06-04T19:05:17.198Z,50.47
2023-06-04T19:10:18.983Z,50.71
2023-06-04T19:15:21.974Z,51.06
2023-06-04T19:20:25.136Z,52.05
2023-06-04T19:25:26.838Z,52.43
2023-06-04T19:30:28.565Z,52.31
2023-06-04T19:35:31.652Z,52.81
2023-06-04T19:40:33.366Z,53.11
2023-06-04T19:45:35.081Z,52.73
2023-06-04T19:50:38.356Z,52.47
2023-06-04T19:55:40.041Z,52.91
2023-06-04T20:00:41.949Z,53.73
2023-06-04T20:05:45.042Z,54.55
2023-06-04T20:10:47.116Z,54.66
2023-06-04T20:15:48.796Z,54.97
2023-06-04T20:20:51.845Z,55.65
2023-06-04T20:25:53.496Z,56.16
2023-06-04T20:30:55.145Z,55.61
2023-06-04T20:35:58.200Z,56.54
2023-06-04T20:40:59.917Z,55.89
2023-06-04T20:46:01.633Z,56.12
2023-06-04T20:51:04.715Z,56.15
2023-06-04T20:56:06.662Z,56.08
2023-06-04T21:01:08.660Z,56.13
2023-06-04T21:06:12.163Z,56.29
2023-06-04T21:11:13.922Z,56.72
2023-06-04T21:16:15.610Z,56.72
2023-06-04T21:21:18.776Z,56.93
2023-06-04T21:26:20.620Z,56.61
2023-06-04T21:31:22.321Z,56.87
2023-06-04T21:36:25.402Z,56.96
2023-06-04T21:41:27.143Z,56.97
2023-06-04T21:46:29.038Z,57.40
2023-06-04T21:51:32.236Z,57.52
2023-06-04T21:56:33.894Z,57.43
2023-06-04T22:01:35.576Z,57.48
2023-06-04T22:06:38.620Z,57.45
2023-06-04T22:11:40.314Z,57.56
2023-06-04T22:16:42.649Z,57.99
2023-06-04T22:21:45.792Z,57.86
2023-06-04T22:26:47.555Z,57.94
2023-06-04T22:31:49.316Z,58.56
2023-06-04T22:36:52.688Z,58.33
2023-06-04T22:41:54.373Z,58.35
2023-06-04T22:46:57.286Z,58.27
2023-06-04T22:52:00.497Z,58.88
2023-06-04T22:57:02.172Z,58.63
2023-06-04T23:02:04.146Z,58.49
2023-06-04T23:07:07.259Z,58.83
2023-06-04T23:12:08.946Z,58.44
2023-06-04T23:17:10.598Z,58.74
2023-06-04T23:22:13.638Z,58.55
2023-06-04T23:27:15.337Z,58.46
2023-06-04T23:32:17.268Z,58.90
2023-06-04T23:37:20.658Z,58.95
2023-06-04T23:42:22.331Z,58.78
2023-06-04T23:47:24.028Z,59.61
2023-06-04T23:52:27.057Z,59.58
2023-06-04T23:57:28.684Z,59.39
